Time;durP1;ratioP1;P1;durP2;ratioP2;P2;SDS_P1;SDS_P2;PMS_P1;PMS_P2;Temp;Humidity;BMP_temperature;BMP_pressure;BME280_temperature;BME280_humidity;BME280_pressure;Samples;Min_cycle;Max_cycle;Signal;HPM_P1;HPM_P2
2021/01/14 00:02:17;;;;;;;;;96.00;75.25;;;;;;;;5033181;28;8856;-79
2021/01/14 00:04:44;;;;;;;;;97.75;82.25;;;;;;;;5042191;28;8995;-80
2021/01/14 00:07:10;;;;;;;;;96.00;77.75;;;;;;;;5040319;28;8857;-80
2021/01/14 00:09:36;;;;;;;;;99.50;84.75;;;;;;;;5041163;28;8878;-80
2021/01/14 00:12:02;;;;;;;;;97.75;80.00;;;;;;;;5041734;28;8849;-78
2021/01/14 00:14:27;;;;;;;;;99.25;81.75;;;;;;;;5039520;28;8858;-80
2021/01/14 00:16:53;;;;;;;;;97.75;78.75;;;;;;;;5042940;28;8866;-80
2021/01/14 00:19:19;;;;;;;;;94.00;76.50;;;;;;;;5038846;28;8852;-79
2021/01/14 00:21:46;;;;;;;;;95.25;76.25;;;;;;;;5041875;28;8838;-80
2021/01/14 00:24:12;;;;;;;;;96.25;73.25;;;;;;;;5039835;28;9573;-79
2021/01/14 00:26:40;;;;;;;;;94.50;76.25;;;;;;;;5041099;28;8848;-80
2021/01/14 00:29:06;;;;;;;;;95.00;79.25;;;;;;;;5041044;28;8845;-80
2021/01/14 00:31:32;;;;;;;;;99.00;78.25;;;;;;;;5040202;28;8875;-80
2021/01/14 00:33:58;;;;;;;;;100.25;76.25;;;;;;;;5042113;28;8971;-81
2021/01/14 00:36:31;;;;;;;;;96.00;78.75;;;;;;;;5039091;28;9025;-81
2021/01/14 00:38:57;;;;;;;;;91.75;70.00;;;;;;;;5042589;28;8847;-81
2021/01/14 00:41:23;;;;;;;;;94.75;76.50;;;;;;;;5042396;28;8833;-81
2021/01/14 00:43:49;;;;;;;;;92.00;71.00;;;;;;;;5039290;28;8871;-80
2021/01/14 00:46:16;;;;;;;;;96.00;80.75;;;;;;;;5041677;28;9007;-79
2021/01/14 00:48:42;;;;;;;;;94.75;76.75;;;;;;;;5039589;28;8833;-79
2021/01/14 00:51:08;;;;;;;;;94.50;75.50;;;;;;;;5040726;28;8856;-79
2021/01/14 00:53:36;;;;;;;;;89.00;70.25;;;;;;;;5040435;28;8972;-79
2021/01/14 00:56:03;;;;;;;;;93.75;71.00;;;;;;;;5039874;28;8887;-79
2021/01/14 00:58:29;;;;;;;;;91.00;70.25;;;;;;;;5041779;28;8826;-81
2021/01/14 01:00:55;;;;;;;;;90.75;68.25;;;;;;;;5038954;28;8994;-82
2021/01/14 01:03:21;;;;;;;;;87.00;70.25;;;;;;;;5042884;28;8830;-82
2021/01/14 01:05:47;;;;;;;;;95.50;75.00;;;;;;;;5038996;28;8867;-81
2021/01/14 01:08:12;;;;;;;;;89.00;70.00;;;;;;;;5038529;28;8828;-82
2021/01/14 01:10:38;;;;;;;;;90.75;70.50;;;;;;;;5038818;28;8864;-82
2021/01/14 01:13:05;;;;;;;;;89.50;71.25;;;;;;;;5040166;28;8960;-83
2021/01/14 01:15:31;;;;;;;;;84.75;66.50;;;;;;;;5041358;28;9661;-81
2021/01/14 01:17:57;;;;;;;;;81.25;65.25;;;;;;;;5039500;28;8992;-82
2021/01/14 01:20:23;;;;;;;;;85.75;64.50;;;;;;;;5042206;28;8980;-81
2021/01/14 01:22:49;;;;;;;;;83.25;63.50;;;;;;;;5038527;28;8970;-81
2021/01/14 01:25:15;;;;;;;;;89.00;69.00;;;;;;;;5042027;28;8885;-81
2021/01/14 01:27:41;;;;;;;;;88.00;70.00;;;;;;;;5042987;28;8986;-80
2021/01/14 01:30:08;;;;;;;;;86.75;68.75;;;;;;;;5041974;28;8828;-81
2021/01/14 01:32:34;;;;;;;;;89.00;69.00;;;;;;;;5053778;28;8867;-81
2021/01/14 01:35:00;;;;;;;;;85.50;67.00;;;;;;;;5064630;28;8833;-81
2021/01/14 01:37:26;;;;;;;;;86.50;66.50;;;;;;;;5062975;28;8836;-81
2021/01/14 01:39:52;;;;;;;;;83.00;66.00;;;;;;;;5068049;28;8882;-78
2021/01/14 01:42:18;;;;;;;;;86.25;65.25;;;;;;;;5058202;28;9041;-78
2021/01/14 01:44:44;;;;;;;;;85.50;66.00;;;;;;;;5045746;28;8828;-78
2021/01/14 01:47:12;;;;;;;;;86.50;68.75;;;;;;;;5045125;28;8870;-78
2021/01/14 01:49:39;;;;;;;;;91.75;71.00;;;;;;;;5047855;28;8849;-78
2021/01/14 01:52:06;;;;;;;;;89.00;70.00;;;;;;;;5043751;28;8991;-78
2021/01/14 01:54:33;;;;;;;;;92.75;70.00;;;;;;;;5045438;28;8957;-79
2021/01/14 01:57:00;;;;;;;;;86.00;68.25;;;;;;;;5044459;28;8833;-79
2021/01/14 01:59:27;;;;;;;;;83.75;66.00;;;;;;;;5042076;28;9637;-79
2021/01/14 02:01:53;;;;;;;;;87.25;68.75;;;;;;;;5045814;28;8840;-79
2021/01/14 02:04:20;;;;;;;;;89.50;71.00;;;;;;;;5044799;28;9637;-79
2021/01/14 02:06:50;;;;;;;;;90.50;70.25;;;;;;;;5041991;28;8943;-80
2021/01/14 02:09:18;;;;;;;;;89.00;70.25;;;;;;;;5041803;28;8962;-79
2021/01/14 02:11:47;;;;;;;;;94.00;73.75;;;;;;;;5044635;28;9034;-79
2021/01/14 02:14:14;;;;;;;;;87.00;67.00;;;;;;;;5041978;28;8862;-80
2021/01/14 02:16:40;;;;;;;;;94.75;72.00;;;;;;;;5044221;28;8832;-78
2021/01/14 02:19:11;;;;;;;;;94.75;74.75;;;;;;;;5042632;28;8845;-79
2021/01/14 02:21:38;;;;;;;;;86.00;70.00;;;;;;;;5043367;28;8844;-78
2021/01/14 02:24:07;;;;;;;;;94.25;71.50;;;;;;;;5043279;28;8976;-78
2021/01/14 02:26:35;;;;;;;;;98.75;73.75;;;;;;;;5043064;28;9046;-79
2021/01/14 02:29:02;;;;;;;;;90.25;71.25;;;;;;;;5043452;28;8891;-79
2021/01/14 02:31:27;;;;;;;;;94.75;75.00;;;;;;;;5042021;28;8840;-78
2021/01/14 02:33:54;;;;;;;;;89.75;71.00;;;;;;;;5044708;28;8863;-79
2021/01/14 02:36:21;;;;;;;;;95.50;73.75;;;;;;;;5041167;28;9057;-78
2021/01/14 02:38:47;;;;;;;;;85.25;66.50;;;;;;;;5040256;28;8841;-78
2021/01/14 02:41:13;;;;;;;;;96.75;75.25;;;;;;;;5041406;28;9697;-79
2021/01/14 02:43:39;;;;;;;;;96.25;78.25;;;;;;;;5043349;28;8856;-78
2021/01/14 02:46:06;;;;;;;;;98.75;74.25;;;;;;;;5041942;28;8956;-80
2021/01/14 02:48:34;;;;;;;;;91.00;72.50;;;;;;;;5041361;28;8949;-79
2021/01/14 02:51:03;;;;;;;;;96.00;77.00;;;;;;;;5043272;28;8968;-80
2021/01/14 02:53:30;;;;;;;;;92.50;74.75;;;;;;;;5041687;28;8832;-80
2021/01/14 02:55:56;;;;;;;;;95.50;74.00;;;;;;;;5043994;28;8950;-80
2021/01/14 02:58:22;;;;;;;;;92.00;75.00;;;;;;;;5034693;28;8947;-82
2021/01/14 03:00:49;;;;;;;;;96.00;74.00;;;;;;;;5047037;28;8829;-80
2021/01/14 03:03:15;;;;;;;;;95.00;74.00;;;;;;;;5044692;28;9712;-82
2021/01/14 03:05:41;;;;;;;;;95.25;74.50;;;;;;;;5044569;28;8802;-79
2021/01/14 03:08:07;;;;;;;;;97.75;77.75;;;;;;;;5041559;28;8849;-79
2021/01/14 03:10:33;;;;;;;;;99.00;74.50;;;;;;;;5044793;28;8972;-80
2021/01/14 03:12:58;;;;;;;;;98.75;75.75;;;;;;;;5041679;28;8844;-81
2021/01/14 03:15:24;;;;;;;;;101.50;80.50;;;;;;;;5043393;28;8976;-81
2021/01/14 03:17:53;;;;;;;;;94.75;73.00;;;;;;;;5040954;28;8941;-81
2021/01/14 03:20:19;;;;;;;;;92.50;72.50;;;;;;;;5038728;28;8848;-77
2021/01/14 03:22:45;;;;;;;;;91.25;71.00;;;;;;;;5040492;28;8907;-78
2021/01/14 03:25:11;;;;;;;;;90.50;71.00;;;;;;;;5043139;28;8849;-79
2021/01/14 03:27:38;;;;;;;;;94.50;72.50;;;;;;;;5041146;28;8854;-81
2021/01/14 03:30:05;;;;;;;;;95.50;71.50;;;;;;;;5041856;28;8867;-79
2021/01/14 03:32:31;;;;;;;;;93.25;73.75;;;;;;;;5042427;28;8960;-78
2021/01/14 03:34:58;;;;;;;;;94.75;71.50;;;;;;;;5041129;28;8832;-75
2021/01/14 03:37:24;;;;;;;;;95.50;75.75;;;;;;;;5042544;28;8865;-72
2021/01/14 03:39:49;;;;;;;;;90.50;71.75;;;;;;;;5039360;28;9003;-72
2021/01/14 03:42:18;;;;;;;;;90.75;72.00;;;;;;;;5036361;28;8962;-74
2021/01/14 03:44:44;;;;;;;;;97.25;75.50;;;;;;;;5039557;28;8868;-73
2021/01/14 03:47:10;;;;;;;;;92.75;72.75;;;;;;;;5042028;28;8841;-74
2021/01/14 03:49:36;;;;;;;;;92.75;72.00;;;;;;;;5038984;28;9080;-74
2021/01/14 03:52:03;;;;;;;;;93.75;72.00;;;;;;;;5040290;28;9613;-73
2021/01/14 03:54:29;;;;;;;;;92.25;72.00;;;;;;;;5041917;28;8899;-73
2021/01/14 03:56:55;;;;;;;;;91.75;72.00;;;;;;;;5036945;28;8978;-73
2021/01/14 03:59:21;;;;;;;;;94.50;75.50;;;;;;;;5039978;28;8862;-73
2021/01/14 04:01:47;;;;;;;;;87.00;66.00;;;;;;;;5041677;28;8887;-74
2021/01/14 04:04:13;;;;;;;;;89.75;71.25;;;;;;;;5041273;28;8867;-73
2021/01/14 04:06:39;;;;;;;;;94.75;71.50;;;;;;;;5039856;28;8888;-74
2021/01/14 04:09:06;;;;;;;;;92.25;70.75;;;;;;;;5040818;28;8883;-73
2021/01/14 04:11:33;;;;;;;;;89.25;71.50;;;;;;;;5040310;28;9030;-74
2021/01/14 04:13:59;;;;;;;;;96.50;72.00;;;;;;;;5040208;28;8856;-74
2021/01/14 04:16:25;;;;;;;;;93.25;73.50;;;;;;;;5041323;28;8833;-74
2021/01/14 04:18:51;;;;;;;;;93.50;73.50;;;;;;;;5038896;28;8859;-73
2021/01/14 04:21:17;;;;;;;;;85.00;66.25;;;;;;;;5041792;28;8907;-73
2021/01/14 04:23:43;;;;;;;;;91.00;71.25;;;;;;;;5038581;28;8966;-72
2021/01/14 04:26:10;;;;;;;;;87.75;66.50;;;;;;;;5038173;28;8954;-72
2021/01/14 04:28:37;;;;;;;;;89.50;70.00;;;;;;;;5040606;28;8931;-74
2021/01/14 04:31:03;;;;;;;;;91.50;69.75;;;;;;;;5039610;28;8849;-74
2021/01/14 04:33:28;;;;;;;;;86.00;68.25;;;;;;;;5039760;28;8944;-73
2021/01/14 04:35:55;;;;;;;;;86.50;67.75;;;;;;;;5038203;28;8848;-74
2021/01/14 04:38:22;;;;;;;;;83.00;67.25;;;;;;;;5041620;28;8995;-74
2021/01/14 04:40:54;;;;;;;;;84.50;66.50;;;;;;;;5038615;28;8966;-74
2021/01/14 04:43:22;;;;;;;;;84.75;66.00;;;;;;;;5038182;28;8820;-73
2021/01/14 04:45:49;;;;;;;;;86.00;63.50;;;;;;;;5041849;28;8822;-74
2021/01/14 04:48:18;;;;;;;;;81.50;64.25;;;;;;;;5038249;28;8950;-73
2021/01/14 04:50:46;;;;;;;;;85.50;65.50;;;;;;;;5041519;28;8837;-73
2021/01/14 04:53:14;;;;;;;;;83.25;66.25;;;;;;;;5038166;28;8921;-73
2021/01/14 04:55:43;;;;;;;;;84.25;65.50;;;;;;;;5041125;28;9615;-73
2021/01/14 04:58:14;;;;;;;;;79.00;62.75;;;;;;;;5038446;28;8849;-74
2021/01/14 05:00:45;;;;;;;;;81.25;64.75;;;;;;;;5041002;28;8845;-73
2021/01/14 05:03:14;;;;;;;;;76.00;60.25;;;;;;;;5038909;28;8938;-74
2021/01/14 05:05:40;;;;;;;;;72.50;60.25;;;;;;;;5040688;28;8814;-73
2021/01/14 05:08:07;;;;;;;;;78.50;60.50;;;;;;;;5039015;28;8961;-73
2021/01/14 05:10:33;;;;;;;;;76.25;59.50;;;;;;;;5039818;28;8862;-73
2021/01/14 05:12:59;;;;;;;;;73.50;59.75;;;;;;;;5040077;28;9712;-74
2021/01/14 05:15:26;;;;;;;;;79.25;63.00;;;;;;;;5038829;28;8970;-74
2021/01/14 05:17:53;;;;;;;;;62.00;48.00;;;;;;;;5041136;28;8849;-74
2021/01/14 05:20:19;;;;;;;;;63.00;50.75;;;;;;;;5037876;28;8855;-74
2021/01/14 05:22:50;;;;;;;;;62.25;47.75;;;;;;;;5038091;28;8860;-76
2021/01/14 05:25:16;;;;;;;;;68.25;55.25;;;;;;;;5034093;28;8856;-76
2021/01/14 05:27:42;;;;;;;;;66.00;55.50;;;;;;;;5040853;28;9734;-75
2021/01/14 05:30:10;;;;;;;;;59.25;46.50;;;;;;;;5038876;28;8883;-73
2021/01/14 05:32:36;;;;;;;;;67.50;53.50;;;;;;;;5040444;28;8940;-73
2021/01/14 05:35:06;;;;;;;;;62.00;52.50;;;;;;;;5039638;28;8952;-74
2021/01/14 05:37:33;;;;;;;;;71.25;53.75;;;;;;;;5040437;28;8851;-75
2021/01/14 05:39:59;;;;;;;;;62.00;51.25;;;;;;;;5046453;28;8837;-76
2021/01/14 05:42:25;;;;;;;;;67.75;54.25;;;;;;;;5044742;28;8852;-83
2021/01/14 05:44:51;;;;;;;;;68.00;56.25;;;;;;;;5045053;28;8896;-82
2021/01/14 05:47:20;;;;;;;;;68.25;56.50;;;;;;;;5044748;28;8844;-84
2021/01/14 05:49:54;;;;;;;;;66.50;54.50;;;;;;;;5039281;28;8860;-79
2021/01/14 05:52:22;;;;;;;;;69.00;51.75;;;;;;;;5042613;28;8976;-81
2021/01/14 05:54:53;;;;;;;;;63.25;52.50;;;;;;;;5038560;28;9574;-82
2021/01/14 05:57:19;;;;;;;;;61.50;45.25;;;;;;;;5039791;28;8845;-78
2021/01/14 05:59:53;;;;;;;;;64.25;52.75;;;;;;;;5042029;28;8846;-81
2021/01/14 06:02:26;;;;;;;;;64.75;52.50;;;;;;;;5038187;28;8840;-74
2021/01/14 06:04:52;;;;;;;;;63.75;51.25;;;;;;;;5041132;28;8960;-78
2021/01/14 06:07:18;;;;;;;;;67.50;53.75;;;;;;;;5038165;28;9672;-75
2021/01/14 06:09:48;;;;;;;;;65.25;52.75;;;;;;;;5033835;28;8832;-81
2021/01/14 06:12:15;;;;;;;;;62.50;51.25;;;;;;;;5037810;28;8820;-77
2021/01/14 06:14:41;;;;;;;;;75.75;59.25;;;;;;;;5041365;28;8866;-77
2021/01/14 06:17:07;;;;;;;;;78.25;63.50;;;;;;;;5041906;28;8853;-80
2021/01/14 06:19:34;;;;;;;;;81.00;64.00;;;;;;;;5040562;28;8958;-81
2021/01/14 06:22:00;;;;;;;;;85.50;68.25;;;;;;;;5048379;28;8972;-80
2021/01/14 06:24:27;;;;;;;;;86.25;65.25;;;;;;;;5047014;28;8825;-79
2021/01/14 06:26:55;;;;;;;;;87.25;68.75;;;;;;;;5042038;28;8974;-79
2021/01/14 06:29:22;;;;;;;;;83.00;65.00;;;;;;;;5044375;28;9050;-79
2021/01/14 06:31:48;;;;;;;;;91.00;70.25;;;;;;;;5041744;28;8975;-78
2021/01/14 06:34:15;;;;;;;;;82.50;64.75;;;;;;;;5044646;28;8950;-81
2021/01/14 06:36:45;;;;;;;;;85.50;67.25;;;;;;;;5041835;28;8824;-83
2021/01/14 06:39:14;;;;;;;;;87.25;68.50;;;;;;;;5044443;28;9534;-79
2021/01/14 06:41:41;;;;;;;;;84.00;66.25;;;;;;;;5041677;28;8963;-77
2021/01/14 06:44:09;;;;;;;;;82.50;66.50;;;;;;;;5043184;28;8970;-74
2021/01/14 06:46:35;;;;;;;;;84.00;64.75;;;;;;;;5041149;28;8869;-75
2021/01/14 06:49:06;;;;;;;;;88.25;68.50;;;;;;;;5041865;28;9017;-77
2021/01/14 06:51:43;;;;;;;;;85.00;68.00;;;;;;;;5041438;28;8853;-77
2021/01/14 06:54:11;;;;;;;;;83.00;65.75;;;;;;;;5041318;28;8967;-79
2021/01/14 06:56:46;;;;;;;;;84.50;68.75;;;;;;;;5040879;28;9561;-81
2021/01/14 06:59:15;;;;;;;;;87.00;67.75;;;;;;;;5041343;28;8833;-74
2021/01/14 07:01:44;;;;;;;;;86.75;69.50;;;;;;;;5039173;28;8930;-77
2021/01/14 07:04:19;;;;;;;;;79.75;64.50;;;;;;;;5041295;28;8849;-71
2021/01/14 07:06:55;;;;;;;;;87.50;67.00;;;;;;;;5034589;28;8978;-75
2021/01/14 07:09:25;;;;;;;;;84.00;66.75;;;;;;;;5038369;28;8874;-74
2021/01/14 07:11:54;;;;;;;;;77.25;59.25;;;;;;;;5038705;28;8968;-77
2021/01/14 07:14:23;;;;;;;;;79.25;60.75;;;;;;;;5042085;28;8861;-76
2021/01/14 07:16:58;;;;;;;;;77.50;60.00;;;;;;;;5038779;28;8855;-79
2021/01/14 07:19:24;;;;;;;;;76.00;62.00;;;;;;;;5040107;28;8859;-74
2021/01/14 07:21:51;;;;;;;;;69.75;56.50;;;;;;;;5042938;28;9063;-77
2021/01/14 07:24:21;;;;;;;;;72.50;58.75;;;;;;;;5039256;28;8951;-78
2021/01/14 07:26:47;;;;;;;;;76.00;61.00;;;;;;;;5039585;28;8855;-77
2021/01/14 07:29:14;;;;;;;;;78.75;61.25;;;;;;;;5043148;28;8885;-77
2021/01/14 07:31:47;;;;;;;;;82.00;64.75;;;;;;;;5037479;28;8933;-78
2021/01/14 07:34:33;;;;;;;;;81.75;66.00;;;;;;;;5039935;28;8832;-77
2021/01/14 07:36:58;;;;;;;;;82.25;64.50;;;;;;;;5041770;28;8977;-77
2021/01/14 07:39:39;;;;;;;;;75.00;60.25;;;;;;;;5040822;28;8847;-77
2021/01/14 07:42:05;;;;;;;;;76.75;60.00;;;;;;;;5041357;28;9035;-77
2021/01/14 07:44:31;;;;;;;;;68.25;55.25;;;;;;;;5038712;28;8964;-77
2021/01/14 07:46:59;;;;;;;;;70.25;57.75;;;;;;;;5044679;28;8853;-77
2021/01/14 07:49:28;;;;;;;;;74.75;59.00;;;;;;;;5043100;28;8968;-77
2021/01/14 07:51:54;;;;;;;;;81.00;64.25;;;;;;;;5040611;28;8877;-77
2021/01/14 07:54:20;;;;;;;;;80.50;63.00;;;;;;;;5044312;28;8876;-76
2021/01/14 07:56:50;;;;;;;;;83.75;66.00;;;;;;;;5042112;28;8963;-78
2021/01/14 07:59:26;;;;;;;;;84.50;67.25;;;;;;;;5039879;28;8864;-76
2021/01/14 08:02:06;;;;;;;;;81.50;64.00;;;;;;;;5041865;28;8987;-76
2021/01/14 08:04:44;;;;;;;;;86.50;67.75;;;;;;;;5041797;28;8822;-79
2021/01/14 08:07:20;;;;;;;;;83.75;66.00;;;;;;;;5039344;28;8856;-76
2021/01/14 08:09:47;;;;;;;;;87.50;66.75;;;;;;;;5041433;28;8875;-76
2021/01/14 08:12:13;;;;;;;;;84.75;67.25;;;;;;;;5039687;28;8843;-76
2021/01/14 08:14:39;;;;;;;;;86.00;67.25;;;;;;;;5040044;28;8979;-75
2021/01/14 08:17:20;;;;;;;;;90.50;69.00;;;;;;;;5042053;28;8848;-77
2021/01/14 08:19:47;;;;;;;;;88.00;69.75;;;;;;;;5040042;28;8980;-76
2021/01/14 08:22:13;;;;;;;;;85.25;65.75;;;;;;;;5041102;28;8822;-76
2021/01/14 08:24:44;;;;;;;;;89.50;71.25;;;;;;;;5039827;28;8849;-75
2021/01/14 08:27:11;;;;;;;;;88.25;69.25;;;;;;;;5042640;28;8821;-79
2021/01/14 08:29:41;;;;;;;;;88.25;68.50;;;;;;;;5043569;28;8950;-78
2021/01/14 08:32:26;;;;;;;;;85.75;67.50;;;;;;;;5042393;28;8999;-79
2021/01/14 08:34:54;;;;;;;;;88.00;68.75;;;;;;;;5045213;28;9723;-78
2021/01/14 08:37:28;;;;;;;;;85.25;63.25;;;;;;;;5039638;28;9008;-78
2021/01/14 08:39:57;;;;;;;;;90.50;70.50;;;;;;;;5039046;28;8864;-78
2021/01/14 08:42:29;;;;;;;;;82.00;64.75;;;;;;;;5040809;28;8837;-79
2021/01/14 08:44:58;;;;;;;;;89.75;70.00;;;;;;;;5040417;28;8849;-78
2021/01/14 08:47:39;;;;;;;;;89.75;67.25;;;;;;;;5040854;28;8841;-78
2021/01/14 08:50:07;;;;;;;;;11.75;2.25;;;;;;;;5032581;28;8986;-70
2021/01/14 08:52:34;;;;;;;;;85.25;68.25;;;;;;;;5033958;28;8832;-71
2021/01/14 08:55:00;;;;;;;;;85.75;66.50;;;;;;;;5032422;28;8855;-70
2021/01/14 08:57:45;;;;;;;;;88.50;69.50;;;;;;;;5033558;28;8864;-72
2021/01/14 09:00:12;;;;;;;;;85.75;67.75;;;;;;;;5037870;28;8947;-71
2021/01/14 09:02:38;;;;;;;;;88.50;69.00;;;;;;;;5039454;28;8859;-69
2021/01/14 09:05:05;;;;;;;;;92.50;73.75;;;;;;;;5033959;28;9534;-71
2021/01/14 09:07:31;;;;;;;;;86.75;69.25;;;;;;;;5033330;28;9094;-72
2021/01/14 09:09:57;;;;;;;;;91.00;71.75;;;;;;;;5034267;28;8964;-73
2021/01/14 09:12:23;;;;;;;;;94.00;73.00;;;;;;;;5039206;28;8850;-71
2021/01/14 09:14:49;;;;;;;;;90.00;73.50;;;;;;;;5039459;28;9053;-71
2021/01/14 09:17:16;;;;;;;;;85.25;66.25;;;;;;;;5040069;28;8941;-71
2021/01/14 09:19:42;;;;;;;;;84.00;67.75;;;;;;;;5038003;28;9578;-70
2021/01/14 09:22:08;;;;;;;;;83.00;66.00;;;;;;;;5040428;28;8900;-71
2021/01/14 09:24:37;;;;;;;;;80.00;64.00;;;;;;;;5041134;28;8835;-70
2021/01/14 09:27:05;;;;;;;;;82.75;66.00;;;;;;;;5040037;28;8860;-72
2021/01/14 09:29:31;;;;;;;;;84.00;67.50;;;;;;;;5039563;28;9608;-73
2021/01/14 09:31:57;;;;;;;;;81.75;64.00;;;;;;;;5040141;28;8861;-74
2021/01/14 09:34:23;;;;;;;;;79.25;64.00;;;;;;;;5038352;28;8974;-70
2021/01/14 09:36:49;;;;;;;;;69.75;57.00;;;;;;;;5037212;28;8850;-70
2021/01/14 09:39:16;;;;;;;;;78.25;61.50;;;;;;;;5040955;28;8860;-73
2021/01/14 09:41:43;;;;;;;;;75.00;61.50;;;;;;;;5037793;28;8828;-71
2021/01/14 09:44:09;;;;;;;;;119.00;105.25;;;;;;;;5039820;28;9022;-70
2021/01/14 09:46:36;;;;;;;;;76.75;62.25;;;;;;;;5039245;28;9007;-70
2021/01/14 09:49:05;;;;;;;;;92.50;78.25;;;;;;;;5040524;28;8968;-71
2021/01/14 09:51:31;;;;;;;;;78.00;59.25;;;;;;;;5038801;28;8853;-72
2021/01/14 09:53:57;;;;;;;;;78.25;62.50;;;;;;;;5040186;28;8920;-73
2021/01/14 09:56:26;;;;;;;;;76.25;61.00;;;;;;;;5043809;28;8853;-72
2021/01/14 09:58:54;;;;;;;;;77.75;60.50;;;;;;;;5043844;28;9821;-72
2021/01/14 10:01:22;;;;;;;;;72.50;56.75;;;;;;;;5041198;28;8864;-72
2021/01/14 10:03:51;;;;;;;;;69.25;56.50;;;;;;;;5043820;28;9069;-72
2021/01/14 10:06:20;;;;;;;;;63.75;53.75;;;;;;;;5044485;28;9530;-72
2021/01/14 10:08:49;;;;;;;;;71.75;57.00;;;;;;;;5043708;28;8899;-72
2021/01/14 10:11:16;;;;;;;;;65.75;53.25;;;;;;;;5043830;28;8875;-72
2021/01/14 10:13:48;;;;;;;;;65.50;53.00;;;;;;;;5041045;28;8967;-75
2021/01/14 10:16:15;;;;;;;;;65.00;51.25;;;;;;;;5041211;28;8859;-74
2021/01/14 10:18:41;;;;;;;;;62.75;51.25;;;;;;;;5044372;28;8829;-74
2021/01/14 10:21:07;;;;;;;;;14.25;6.50;;;;;;;;5041527;28;8864;-71
2021/01/14 10:23:34;;;;;;;;;64.50;52.00;;;;;;;;5045070;28;8938;-73
2021/01/14 10:26:00;;;;;;;;;58.50;48.50;;;;;;;;5042418;28;8851;-73
2021/01/14 10:28:26;;;;;;;;;65.00;54.00;;;;;;;;5043218;28;8968;-73
2021/01/14 10:30:53;;;;;;;;;57.75;49.00;;;;;;;;5041639;28;8936;-74
2021/01/14 10:33:20;;;;;;;;;55.25;46.25;;;;;;;;5043720;28;8880;-73
2021/01/14 10:35:53;;;;;;;;;63.25;51.25;;;;;;;;5042436;28;8995;-72
2021/01/14 10:38:19;;;;;;;;;62.25;49.75;;;;;;;;5041838;28;8967;-73
2021/01/14 10:40:45;;;;;;;;;62.75;50.75;;;;;;;;5041588;28;8860;-71
2021/01/14 10:43:14;;;;;;;;;59.50;47.00;;;;;;;;5043809;28;8905;-72
2021/01/14 10:45:40;;;;;;;;;58.75;48.75;;;;;;;;5038083;28;8853;-73
2021/01/14 10:48:07;;;;;;;;;61.75;48.75;;;;;;;;5037192;28;9647;-73
2021/01/14 10:50:41;;;;;;;;;60.50;48.25;;;;;;;;5041187;28;9709;-75
2021/01/14 10:53:07;;;;;;;;;60.75;47.50;;;;;;;;5040235;28;8869;-73
2021/01/14 10:55:33;;;;;;;;;56.50;44.25;;;;;;;;5039831;28;8850;-74
2021/01/14 10:58:00;;;;;;;;;59.25;48.00;;;;;;;;5039592;28;9621;-74
2021/01/14 11:00:27;;;;;;;;;53.00;45.00;;;;;;;;5039720;28;8837;-74
2021/01/14 11:03:02;;;;;;;;;59.25;48.00;;;;;;;;5043856;28;8967;-73
2021/01/14 11:05:41;;;;;;;;;55.00;47.00;;;;;;;;5041152;28;8896;-79
2021/01/14 11:08:07;;;;;;;;;58.33;45.33;;;;;;;;5041790;28;8837;-78
2021/01/14 11:10:33;;;;;;;;;50.67;43.33;;;;;;;;5039809;28;8836;-79
2021/01/14 11:13:03;;;;;;;;;57.33;48.67;;;;;;;;5042350;28;8856;-80
2021/01/14 11:15:29;;;;;;;;;52.33;42.67;;;;;;;;5043984;28;8942;-80
2021/01/14 11:17:56;;;;;;;;;52.67;43.33;;;;;;;;5042128;28;8863;-80
2021/01/14 11:20:21;;;;;;;;;45.67;39.00;;;;;;;;5041370;28;8859;-79
2021/01/14 11:22:48;;;;;;;;;46.67;39.33;;;;;;;;5042688;28;8863;-78
2021/01/14 11:25:14;;;;;;;;;53.33;42.33;;;;;;;;5039975;28;8828;-79
2021/01/14 11:27:40;;;;;;;;;41.67;35.00;;;;;;;;5043552;28;8948;-79
2021/01/14 11:30:07;;;;;;;;;41.67;36.33;;;;;;;;5040441;28;8864;-79
2021/01/14 11:32:33;;;;;;;;;43.67;37.33;;;;;;;;5042405;28;8951;-79
2021/01/14 11:34:59;;;;;;;;;39.33;36.67;;;;;;;;5041325;28;11598;-78
2021/01/14 11:37:24;;;;;;;;;41.75;37.00;;;;;;;;5041324;28;9041;-78
2021/01/14 11:39:51;;;;;;;;;39.50;36.00;;;;;;;;5042209;28;8964;-73
2021/01/14 11:42:17;;;;;;;;;36.50;33.00;;;;;;;;5040197;28;8963;-73
2021/01/14 11:44:43;;;;;;;;;37.75;33.00;;;;;;;;5042950;28;11684;-75
2021/01/14 11:47:09;;;;;;;;;36.75;34.00;;;;;;;;5039236;28;8861;-73
2021/01/14 11:49:35;;;;;;;;;41.25;36.50;;;;;;;;5040063;28;8828;-81
2021/01/14 11:52:01;;;;;;;;;35.75;33.50;;;;;;;;5038848;28;8862;-88
2021/01/14 11:54:27;;;;;;;;;34.50;32.50;;;;;;;;5038908;28;8878;-85
2021/01/14 11:56:54;;;;;;;;;37.75;32.75;;;;;;;;5041381;28;8860;-88
2021/01/14 11:59:20;;;;;;;;;30.75;28.75;;;;;;;;5040621;28;8958;-87
2021/01/14 12:01:46;;;;;;;;;34.00;30.25;;;;;;;;5045096;28;11618;-87
2021/01/14 12:04:12;;;;;;;;;37.25;30.50;;;;;;;;5044353;28;9552;-87
2021/01/14 12:06:38;;;;;;;;;31.00;30.00;;;;;;;;5044926;28;8871;-87
2021/01/14 12:09:04;;;;;;;;;32.33;30.67;;;;;;;;5042816;28;8971;-87
2021/01/14 12:11:30;;;;;;;;;42.00;32.67;;;;;;;;5041667;28;8932;-83
2021/01/14 12:13:56;;;;;;;;;40.00;36.67;;;;;;;;5041181;28;12361;-83
2021/01/14 12:16:22;;;;;;;;;38.33;35.00;;;;;;;;5043207;28;9022;-86
2021/01/14 12:18:48;;;;;;;;;40.67;35.00;;;;;;;;5045082;28;8850;-83
2021/01/14 12:21:14;;;;;;;;;40.00;35.00;;;;;;;;5040484;28;8858;-87
2021/01/14 12:23:40;;;;;;;;;35.00;34.00;;;;;;;;5039368;28;8983;-85
2021/01/14 12:26:06;;;;;;;;;46.33;39.00;;;;;;;;5044973;28;8866;-86
2021/01/14 12:28:32;;;;;;;;;35.00;35.00;;;;;;;;5041337;28;8957;-86
2021/01/14 12:30:59;;;;;;;;;30.67;28.33;;;;;;;;5034703;28;8868;-85
2021/01/14 12:33:25;;;;;;;;;54.00;44.33;;;;;;;;5035694;28;8984;-86
2021/01/14 12:35:51;;;;;;;;;41.00;38.00;;;;;;;;5039770;28;8826;-84
2021/01/14 12:38:17;;;;;;;;;39.33;36.00;;;;;;;;5042576;28;8853;-82
2021/01/14 12:40:43;;;;;;;;;38.00;33.33;;;;;;;;5040803;28;8888;-79
2021/01/14 12:43:09;;;;;;;;;34.00;33.00;;;;;;;;5041530;28;8840;-79
2021/01/14 12:45:34;;;;;;;;;46.00;37.00;;;;;;;;5037965;28;8978;-81
2021/01/14 12:48:01;;;;;;;;;36.33;35.00;;;;;;;;5039511;28;8857;-80
2021/01/14 12:50:27;;;;;;;;;35.00;30.67;;;;;;;;5040178;28;8987;-78
2021/01/14 12:52:53;;;;;;;;;34.00;30.33;;;;;;;;5041152;28;11703;-78
2021/01/14 12:55:20;;;;;;;;;32.00;29.33;;;;;;;;5040874;28;9615;-77
2021/01/14 12:57:46;;;;;;;;;33.00;30.33;;;;;;;;5040789;28;8874;-77
2021/01/14 13:00:12;;;;;;;;;37.67;34.67;;;;;;;;5041229;28;11565;-75
2021/01/14 13:02:41;;;;;;;;;34.33;31.67;;;;;;;;5038927;28;9591;-73
2021/01/14 13:05:09;;;;;;;;;38.67;33.33;;;;;;;;5040241;28;11579;-74
2021/01/14 13:07:35;;;;;;;;;34.33;31.33;;;;;;;;5038314;28;8941;-74
2021/01/14 13:10:01;;;;;;;;;38.00;35.00;;;;;;;;5040566;28;11628;-76
2021/01/14 13:12:26;;;;;;;;;28.00;23.00;;;;;;;;5038850;28;11576;-76
2021/01/14 13:14:52;;;;;;;;;34.00;32.33;;;;;;;;5040002;28;8906;-76
2021/01/14 13:17:18;;;;;;;;;32.00;28.67;;;;;;;;5040684;28;8984;-77
2021/01/14 13:19:44;;;;;;;;;28.67;27.67;;;;;;;;5036115;28;8877;-75
2021/01/14 13:22:11;;;;;;;;;30.33;27.00;;;;;;;;5036049;28;8863;-76
2021/01/14 13:24:37;;;;;;;;;19.67;15.67;;;;;;;;5041343;28;8836;-75
2021/01/14 13:27:03;;;;;;;;;32.00;28.75;;;;;;;;5038150;28;11761;-78
2021/01/14 13:29:29;;;;;;;;;33.25;25.00;;;;;;;;5040211;28;11720;-79
2021/01/14 13:31:55;;;;;;;;;29.00;28.25;;;;;;;;5045228;28;11704;-80
2021/01/14 13:34:22;;;;;;;;;34.75;29.00;;;;;;;;5042464;28;8860;-82
2021/01/14 13:36:49;;;;;;;;;27.00;23.25;;;;;;;;5044315;28;8913;-84
2021/01/14 13:39:17;;;;;;;;;28.75;23.75;;;;;;;;5043548;28;11579;-86
2021/01/14 13:41:47;;;;;;;;;26.75;24.00;;;;;;;;5037712;28;11618;-77
2021/01/14 13:44:13;;;;;;;;;25.75;22.75;;;;;;;;5037339;28;11686;-80
2021/01/14 13:46:39;;;;;;;;;34.25;29.00;;;;;;;;5037462;28;11695;-80
2021/01/14 13:49:05;;;;;;;;;23.50;22.50;;;;;;;;5038367;28;9650;-78
2021/01/14 13:51:32;;;;;;;;;22.25;19.50;;;;;;;;5042074;28;11557;-77
2021/01/14 13:53:58;;;;;;;;;20.75;19.25;;;;;;;;5046276;28;11703;-88
2021/01/14 13:56:24;;;;;;;;;24.00;21.25;;;;;;;;5045565;28;11559;-84
2021/01/14 13:58:50;;;;;;;;;12.25;9.50;;;;;;;;5046068;28;8876;-81
2021/01/14 14:01:23;;;;;;;;;20.75;18.25;;;;;;;;5045947;28;11550;-79
2021/01/14 14:03:49;;;;;;;;;27.00;24.00;;;;;;;;5041883;28;8840;-79
2021/01/14 14:06:15;;;;;;;;;20.75;19.75;;;;;;;;5044698;28;11589;-81
2021/01/14 14:08:41;;;;;;;;;22.50;21.50;;;;;;;;5040765;28;9619;-79
2021/01/14 14:11:07;;;;;;;;;20.25;20.25;;;;;;;;5044141;28;11597;-80
2021/01/14 14:13:35;;;;;;;;;26.25;21.00;;;;;;;;5040858;28;11574;-81
2021/01/14 14:16:01;;;;;;;;;23.50;19.00;;;;;;;;5043572;28;8843;-82
2021/01/14 14:18:28;;;;;;;;;21.50;17.50;;;;;;;;5041550;28;11565;-76
2021/01/14 14:20:54;;;;;;;;;22.00;16.75;;;;;;;;5044960;28;8960;-81
2021/01/14 14:23:20;;;;;;;;;21.50;21.50;;;;;;;;5041840;28;11616;-81
2021/01/14 14:25:46;;;;;;;;;21.00;19.00;;;;;;;;5043278;28;12421;-84
2021/01/14 14:28:12;;;;;;;;;20.50;17.00;;;;;;;;5040445;28;8967;-81
2021/01/14 14:30:39;;;;;;;;;19.25;17.00;;;;;;;;5040411;28;8860;-85